岡山グライダークラブ活動状況掲示板

岡山グライダークラブ
岡山市浦安南町639-1 岡南飛行場
 使用機:シャイベ式 SF25C型 ファルケ   JA2330
      ヴァレンティン式17E型 タイフーン  JA2342
 練習日:毎日曜日  クラブルーム:電話 086-265-1810
この掲示板は岡山グライダークラブの活動状況をお知らせする掲示板です。
!!!この掲示板は投稿規制をしています。!!!
クラブ関連各種情報は 岡山グライダークラブクラブルーム      を       .
  ブリーフイング情報は  岡山グライダークラブブリーフィングルーム  をご覧下さい。 .
※写真はクリックすると拡大して見ることが出来ます。
岡南飛行場へのアクセス等は 岡南飛行場管理事務所 をご覧ください。
クラブの ホームページ ができました。

!!!最近のコロナ感染拡大に伴い、当面の間、見学者等の受入を中止しております。再開まで今しばらくお待ちください!!!

 
05月30日
by OGC at 2021/5/30(日) 11:53:16 No.20210530113712  削除コメント
1039 x 774 x 58,183バイト <この画像は大きいので別画面で表示します>
No.1

05月30日
本日のリモート参加者
  会員      11名
  その他      0名


@本日の様子






METAR
RJBK 300000Z VRB02KT 30KM SKC 21/14 Q1009 A2982
RJOB 300000Z VRB02KT CAVOK 19/12 Q1010
RJOT 300000Z VRB02KT 9999 FEW030 21/14 Q1010
RJOA 300000Z 24003KT 150V290 CAVOK 20/11 Q1010

TAF
RJOB 292308Z 3000/3106 26007KT 9999 FEW030 SCT045
    BECMG 3009/3011 02005KT
RJOT 292308Z 3000/3106 03005KT 9999 FEW035
RJOA 292305Z 3000/3106 16005KT 9999 FEW030
       BECMG 3007/3009 21004KT
       BECMG 3021/3100 06005KT


本日、第11回リモートブリーフィングを開催しました。
緊急事態宣言延長に伴い、6月20日まで活動自粛延長の周知がありました。
また、活動再開後の運用について会員の意見集約を行いましたので、今後、決定次第周知することになりました。
あと、勉強会ではADS−Bについて講義がありました。

集合 10:00 解散    11:00

本日のフライトはありません。

    << 戻る || ホームページ || 最新の掲示板へ